sensor_id;sensor_type;location;lat;lon;timestamp;P1;durP1;ratioP1;P2;durP2;ratioP2
8349;SDS011;60699;48.946;8.412;2024-02-21T00:00:40;10.45;;;3.83;;
8349;SDS011;60699;48.946;8.412;2024-02-21T00:03:07;5.70;;;3.78;;
8349;SDS011;60699;48.946;8.412;2024-02-21T00:05:34;9.93;;;5.18;;
8349;SDS011;60699;48.946;8.412;2024-02-21T00:08:01;10.25;;;6.20;;
8349;SDS011;60699;48.946;8.412;2024-02-21T00:10:29;4.85;;;4.13;;
8349;SDS011;60699;48.946;8.412;2024-02-21T00:12:58;6.53;;;4.60;;
8349;SDS011;60699;48.946;8.412;2024-02-21T00:15:25;6.35;;;4.40;;
8349;SDS011;60699;48.946;8.412;2024-02-21T00:17:52;11.05;;;4.45;;
8349;SDS011;60699;48.946;8.412;2024-02-21T00:20:19;3.95;;;3.65;;
8349;SDS011;60699;48.946;8.412;2024-02-21T00:22:46;4.80;;;3.40;;
8349;SDS011;60699;48.946;8.412;2024-02-21T00:25:13;5.53;;;3.85;;
8349;SDS011;60699;48.946;8.412;2024-02-21T00:27:40;6.05;;;3.17;;
8349;SDS011;60699;48.946;8.412;2024-02-21T00:30:09;8.18;;;3.55;;
8349;SDS011;60699;48.946;8.412;2024-02-21T00:32:37;4.55;;;2.70;;
8349;SDS011;60699;48.946;8.412;2024-02-21T00:35:04;5.10;;;3.95;;
8349;SDS011;60699;48.946;8.412;2024-02-21T00:37:31;5.05;;;3.40;;
8349;SDS011;60699;48.946;8.412;2024-02-21T00:39:58;5.63;;;3.72;;
8349;SDS011;60699;48.946;8.412;2024-02-21T00:42:25;9.32;;;2.95;;
8349;SDS011;60699;48.946;8.412;2024-02-21T00:44:52;6.30;;;3.10;;
8349;SDS011;60699;48.946;8.412;2024-02-21T00:47:20;4.18;;;3.50;;
8349;SDS011;60699;48.946;8.412;2024-02-21T00:49:47;7.03;;;3.85;;
8349;SDS011;60699;48.946;8.412;2024-02-21T00:52:14;4.38;;;3.30;;
8349;SDS011;60699;48.946;8.412;2024-02-21T00:54:41;4.90;;;3.05;;
8349;SDS011;60699;48.946;8.412;2024-02-21T00:57:08;4.22;;;3.40;;
8349;SDS011;60699;48.946;8.412;2024-02-21T00:59:35;3.17;;;2.80;;
8349;SDS011;60699;48.946;8.412;2024-02-21T01:02:02;5.35;;;3.50;;
8349;SDS011;60699;48.946;8.412;2024-02-21T01:04:31;7.60;;;3.10;;
8349;SDS011;60699;48.946;8.412;2024-02-21T01:06:58;3.08;;;2.88;;
8349;SDS011;60699;48.946;8.412;2024-02-21T01:09:25;5.70;;;2.67;;
8349;SDS011;60699;48.946;8.412;2024-02-21T01:11:52;4.88;;;3.40;;
8349;SDS011;60699;48.946;8.412;2024-02-21T01:14:19;6.43;;;3.83;;
8349;SDS011;60699;48.946;8.412;2024-02-21T01:16:46;3.10;;;2.85;;
8349;SDS011;60699;48.946;8.412;2024-02-21T01:19:13;3.42;;;3.05;;
8349;SDS011;60699;48.946;8.412;2024-02-21T01:21:41;5.20;;;2.67;;
8349;SDS011;60699;48.946;8.412;2024-02-21T01:24:09;12.05;;;2.95;;
8349;SDS011;60699;48.946;8.412;2024-02-21T01:26:36;3.75;;;3.25;;
8349;SDS011;60699;48.946;8.412;2024-02-21T01:29:03;4.80;;;3.15;;
8349;SDS011;60699;48.946;8.412;2024-02-21T01:31:30;3.70;;;3.10;;
8349;SDS011;60699;48.946;8.412;2024-02-21T01:33:56;4.40;;;2.72;;
8349;SDS011;60699;48.946;8.412;2024-02-21T01:36:24;5.35;;;2.95;;
8349;SDS011;60699;48.946;8.412;2024-02-21T01:38:52;10.10;;;3.60;;
8349;SDS011;60699;48.946;8.412;2024-02-21T01:41:19;4.70;;;2.75;;
8349;SDS011;60699;48.946;8.412;2024-02-21T01:43:46;6.28;;;3.97;;
8349;SDS011;60699;48.946;8.412;2024-02-21T01:46:13;2.95;;;2.70;;
8349;SDS011;60699;48.946;8.412;2024-02-21T01:48:40;3.55;;;3.00;;
8349;SDS011;60699;48.946;8.412;2024-02-21T01:51:07;5.53;;;3.42;;
8349;SDS011;60699;48.946;8.412;2024-02-21T01:53:35;2.95;;;2.38;;
8349;SDS011;60699;48.946;8.412;2024-02-21T01:56:05;5.25;;;2.80;;
8349;SDS011;60699;48.946;8.412;2024-02-21T01:58:32;7.78;;;3.35;;
8349;SDS011;60699;48.946;8.412;2024-02-21T02:01:02;4.10;;;3.53;;
8349;SDS011;60699;48.946;8.412;2024-02-21T02:03:29;4.63;;;2.75;;
8349;SDS011;60699;48.946;8.412;2024-02-21T02:05:56;7.97;;;3.05;;
8349;SDS011;60699;48.946;8.412;2024-02-21T02:08:23;3.85;;;3.55;;
8349;SDS011;60699;48.946;8.412;2024-02-21T02:10:50;6.35;;;2.92;;
8349;SDS011;60699;48.946;8.412;2024-02-21T02:13:18;3.40;;;2.80;;
8349;SDS011;60699;48.946;8.412;2024-02-21T02:15:46;5.30;;;2.80;;
8349;SDS011;60699;48.946;8.412;2024-02-21T02:18:13;7.75;;;2.83;;
8349;SDS011;60699;48.946;8.412;2024-02-21T02:20:41;5.32;;;2.75;;
8349;SDS011;60699;48.946;8.412;2024-02-21T02:23:09;4.47;;;3.05;;
8349;SDS011;60699;48.946;8.412;2024-02-21T02:25:38;3.50;;;3.30;;
8349;SDS011;60699;48.946;8.412;2024-02-21T02:28:06;3.03;;;2.75;;
8349;SDS011;60699;48.946;8.412;2024-02-21T02:30:33;4.97;;;3.00;;
8349;SDS011;60699;48.946;8.412;2024-02-21T02:33:01;3.42;;;2.70;;
8349;SDS011;60699;48.946;8.412;2024-02-21T02:35:28;4.50;;;2.92;;
8349;SDS011;60699;48.946;8.412;2024-02-21T02:37:55;5.50;;;3.20;;
8349;SDS011;60699;48.946;8.412;2024-02-21T02:40:22;4.32;;;2.88;;
8349;SDS011;60699;48.946;8.412;2024-02-21T02:42:51;5.60;;;3.17;;
8349;SDS011;60699;48.946;8.412;2024-02-21T02:45:20;4.28;;;3.28;;
8349;SDS011;60699;48.946;8.412;2024-02-21T02:47:47;4.95;;;3.58;;
8349;SDS011;60699;48.946;8.412;2024-02-21T02:50:14;3.63;;;2.70;;
8349;SDS011;60699;48.946;8.412;2024-02-21T02:52:41;6.75;;;2.78;;
8349;SDS011;60699;48.946;8.412;2024-02-21T02:55:08;4.20;;;3.78;;
8349;SDS011;60699;48.946;8.412;2024-02-21T02:57:35;3.97;;;3.25;;
8349;SDS011;60699;48.946;8.412;2024-02-21T03:00:04;6.78;;;4.00;;
8349;SDS011;60699;48.946;8.412;2024-02-21T03:02:32;3.80;;;2.80;;
8349;SDS011;60699;48.946;8.412;2024-02-21T03:04:59;7.45;;;3.95;;
8349;SDS011;60699;48.946;8.412;2024-02-21T03:07:26;10.77;;;3.35;;
8349;SDS011;60699;48.946;8.412;2024-02-21T03:09:53;8.57;;;4.80;;
8349;SDS011;60699;48.946;8.412;2024-02-21T03:12:20;3.72;;;3.30;;
8349;SDS011;60699;48.946;8.412;2024-02-21T03:14:52;7.95;;;3.47;;
8349;SDS011;60699;48.946;8.412;2024-02-21T03:17:21;9.02;;;5.03;;
8349;SDS011;60699;48.946;8.412;2024-02-21T03:19:48;5.05;;;3.40;;
8349;SDS011;60699;48.946;8.412;2024-02-21T03:22:15;4.60;;;3.67;;
8349;SDS011;60699;48.946;8.412;2024-02-21T03:24:42;4.60;;;3.60;;
8349;SDS011;60699;48.946;8.412;2024-02-21T03:27:09;4.25;;;3.42;;
8349;SDS011;60699;48.946;8.412;2024-02-21T03:29:36;5.20;;;3.10;;
8349;SDS011;60699;48.946;8.412;2024-02-21T03:32:03;5.35;;;4.32;;
8349;SDS011;60699;48.946;8.412;2024-02-21T03:34:32;4.60;;;2.80;;
8349;SDS011;60699;48.946;8.412;2024-02-21T03:36:59;8.57;;;3.50;;
8349;SDS011;60699;48.946;8.412;2024-02-21T03:39:26;4.10;;;3.05;;
8349;SDS011;60699;48.946;8.412;2024-02-21T03:41:53;4.18;;;3.50;;
8349;SDS011;60699;48.946;8.412;2024-02-21T03:44:20;3.17;;;2.88;;
8349;SDS011;60699;48.946;8.412;2024-02-21T03:46:47;3.50;;;3.20;;
8349;SDS011;60699;48.946;8.412;2024-02-21T03:49:14;4.38;;;3.42;;
8349;SDS011;60699;48.946;8.412;2024-02-21T03:51:42;4.45;;;2.95;;
8349;SDS011;60699;48.946;8.412;2024-02-21T03:54:09;7.47;;;3.67;;
8349;SDS011;60699;48.946;8.412;2024-02-21T03:56:37;4.70;;;3.10;;
8349;SDS011;60699;48.946;8.412;2024-02-21T03:59:06;4.90;;;2.53;;
8349;SDS011;60699;48.946;8.412;2024-02-21T04:01:33;3.13;;;2.80;;
8349;SDS011;60699;48.946;8.412;2024-02-21T04:04:00;3.95;;;3.38;;
8349;SDS011;60699;48.946;8.412;2024-02-21T04:06:27;9.80;;;3.92;;
8349;SDS011;60699;48.946;8.412;2024-02-21T04:08:56;4.22;;;3.45;;
8349;SDS011;60699;48.946;8.412;2024-02-21T04:11:23;3.22;;;2.85;;
8349;SDS011;60699;48.946;8.412;2024-02-21T04:13:50;6.30;;;3.53;;
8349;SDS011;60699;48.946;8.412;2024-02-21T04:16:17;4.88;;;3.28;;
8349;SDS011;60699;48.946;8.412;2024-02-21T04:18:44;5.45;;;3.30;;
8349;SDS011;60699;48.946;8.412;2024-02-21T04:21:14;4.20;;;3.75;;
8349;SDS011;60699;48.946;8.412;2024-02-21T04:23:41;5.05;;;3.17;;
8349;SDS011;60699;48.946;8.412;2024-02-21T04:26:10;10.48;;;4.18;;
8349;SDS011;60699;48.946;8.412;2024-02-21T04:28:37;5.82;;;3.47;;
8349;SDS011;60699;48.946;8.412;2024-02-21T04:31:04;4.22;;;3.83;;
8349;SDS011;60699;48.946;8.412;2024-02-21T04:33:31;8.75;;;3.50;;
8349;SDS011;60699;48.946;8.412;2024-02-21T04:35:58;17.02;;;3.80;;
8349;SDS011;60699;48.946;8.412;2024-02-21T04:38:25;4.95;;;3.65;;
8349;SDS011;60699;48.946;8.412;2024-02-21T04:40:53;4.72;;;3.30;;
8349;SDS011;60699;48.946;8.412;2024-02-21T04:43:24;4.22;;;3.38;;
8349;SDS011;60699;48.946;8.412;2024-02-21T04:45:51;3.83;;;3.00;;
8349;SDS011;60699;48.946;8.412;2024-02-21T04:48:19;4.72;;;3.10;;
8349;SDS011;60699;48.946;8.412;2024-02-21T04:50:46;5.03;;;3.53;;
8349;SDS011;60699;48.946;8.412;2024-02-21T04:53:13;5.40;;;3.10;;
8349;SDS011;60699;48.946;8.412;2024-02-21T04:55:41;3.53;;;3.15;;
8349;SDS011;60699;48.946;8.412;2024-02-21T04:58:08;4.93;;;4.43;;
8349;SDS011;60699;48.946;8.412;2024-02-21T05:00:36;4.38;;;2.95;;
8349;SDS011;60699;48.946;8.412;2024-02-21T05:03:03;6.18;;;3.13;;
8349;SDS011;60699;48.946;8.412;2024-02-21T05:05:30;3.38;;;3.05;;
8349;SDS011;60699;48.946;8.412;2024-02-21T05:07:57;5.97;;;2.85;;
8349;SDS011;60699;48.946;8.412;2024-02-21T05:10:25;5.15;;;2.78;;
8349;SDS011;60699;48.946;8.412;2024-02-21T05:12:52;7.47;;;3.63;;
8349;SDS011;60699;48.946;8.412;2024-02-21T05:15:19;6.95;;;3.90;;
8349;SDS011;60699;48.946;8.412;2024-02-21T05:17:47;7.35;;;3.42;;
8349;SDS011;60699;48.946;8.412;2024-02-21T05:20:14;4.72;;;3.92;;
8349;SDS011;60699;48.946;8.412;2024-02-21T05:22:41;7.03;;;4.03;;
8349;SDS011;60699;48.946;8.412;2024-02-21T05:25:09;5.13;;;3.47;;
8349;SDS011;60699;48.946;8.412;2024-02-21T05:27:36;6.07;;;3.65;;
8349;SDS011;60699;48.946;8.412;2024-02-21T05:30:04;4.70;;;3.15;;
8349;SDS011;60699;48.946;8.412;2024-02-21T05:32:32;8.50;;;3.70;;
8349;SDS011;60699;48.946;8.412;2024-02-21T05:35:00;4.93;;;3.05;;
8349;SDS011;60699;48.946;8.412;2024-02-21T05:37:27;4.55;;;2.90;;
8349;SDS011;60699;48.946;8.412;2024-02-21T05:39:54;4.85;;;3.60;;
8349;SDS011;60699;48.946;8.412;2024-02-21T05:42:21;4.55;;;2.75;;
8349;SDS011;60699;48.946;8.412;2024-02-21T05:44:48;3.63;;;3.20;;
8349;SDS011;60699;48.946;8.412;2024-02-21T05:47:15;7.20;;;3.33;;
8349;SDS011;60699;48.946;8.412;2024-02-21T05:49:42;9.18;;;4.35;;
8349;SDS011;60699;48.946;8.412;2024-02-21T05:52:10;6.05;;;3.72;;
8349;SDS011;60699;48.946;8.412;2024-02-21T05:54:37;3.63;;;3.30;;
8349;SDS011;60699;48.946;8.412;2024-02-21T05:57:05;3.47;;;2.90;;
8349;SDS011;60699;48.946;8.412;2024-02-21T05:59:32;5.30;;;3.10;;
8349;SDS011;60699;48.946;8.412;2024-02-21T06:02:01;6.63;;;4.10;;
8349;SDS011;60699;48.946;8.412;2024-02-21T06:04:29;4.75;;;3.65;;
8349;SDS011;60699;48.946;8.412;2024-02-21T06:06:56;4.13;;;3.45;;
8349;SDS011;60699;48.946;8.412;2024-02-21T06:09:24;4.13;;;3.20;;
8349;SDS011;60699;48.946;8.412;2024-02-21T06:11:51;7.28;;;3.67;;
8349;SDS011;60699;48.946;8.412;2024-02-21T06:14:19;5.82;;;3.83;;
8349;SDS011;60699;48.946;8.412;2024-02-21T06:16:46;6.13;;;3.90;;
8349;SDS011;60699;48.946;8.412;2024-02-21T06:19:13;6.15;;;3.42;;
8349;SDS011;60699;48.946;8.412;2024-02-21T06:21:40;4.93;;;3.13;;
8349;SDS011;60699;48.946;8.412;2024-02-21T06:24:07;3.42;;;3.00;;
8349;SDS011;60699;48.946;8.412;2024-02-21T06:26:35;8.73;;;3.40;;
8349;SDS011;60699;48.946;8.412;2024-02-21T06:29:02;4.63;;;3.47;;
8349;SDS011;60699;48.946;8.412;2024-02-21T06:31:29;7.60;;;4.63;;
8349;SDS011;60699;48.946;8.412;2024-02-21T06:33:56;5.35;;;3.60;;
8349;SDS011;60699;48.946;8.412;2024-02-21T06:36:24;7.40;;;3.67;;
8349;SDS011;60699;48.946;8.412;2024-02-21T06:38:50;5.18;;;4.63;;
8349;SDS011;60699;48.946;8.412;2024-02-21T06:41:18;5.15;;;4.70;;
8349;SDS011;60699;48.946;8.412;2024-02-21T06:43:46;4.88;;;3.78;;
8349;SDS011;60699;48.946;8.412;2024-02-21T06:46:22;5.88;;;2.78;;
8349;SDS011;60699;48.946;8.412;2024-02-21T06:48:49;6.95;;;3.17;;
8349;SDS011;60699;48.946;8.412;2024-02-21T06:51:16;3.05;;;2.78;;
8349;SDS011;60699;48.946;8.412;2024-02-21T06:53:43;6.50;;;3.65;;
8349;SDS011;60699;48.946;8.412;2024-02-21T06:56:10;4.35;;;3.40;;
8349;SDS011;60699;48.946;8.412;2024-02-21T06:58:37;9.18;;;4.00;;
8349;SDS011;60699;48.946;8.412;2024-02-21T07:01:05;4.82;;;3.75;;
8349;SDS011;60699;48.946;8.412;2024-02-21T07:03:32;3.75;;;3.35;;
8349;SDS011;60699;48.946;8.412;2024-02-21T07:05:59;8.77;;;4.40;;
8349;SDS011;60699;48.946;8.412;2024-02-21T07:08:26;6.32;;;4.40;;
8349;SDS011;60699;48.946;8.412;2024-02-21T07:10:53;8.98;;;4.45;;
8349;SDS011;60699;48.946;8.412;2024-02-21T07:13:20;5.80;;;4.70;;
8349;SDS011;60699;48.946;8.412;2024-02-21T07:15:48;5.35;;;3.72;;
8349;SDS011;60699;48.946;8.412;2024-02-21T07:18:16;3.65;;;3.35;;
8349;SDS011;60699;48.946;8.412;2024-02-21T07:20:43;5.07;;;4.50;;
8349;SDS011;60699;48.946;8.412;2024-02-21T07:23:10;8.18;;;4.20;;
8349;SDS011;60699;48.946;8.412;2024-02-21T07:25:37;6.13;;;3.40;;
8349;SDS011;60699;48.946;8.412;2024-02-21T07:28:05;9.02;;;5.28;;
8349;SDS011;60699;48.946;8.412;2024-02-21T07:30:33;8.00;;;5.70;;
8349;SDS011;60699;48.946;8.412;2024-02-21T07:33:00;6.50;;;4.32;;
8349;SDS011;60699;48.946;8.412;2024-02-21T07:35:29;6.97;;;5.25;;
8349;SDS011;60699;48.946;8.412;2024-02-21T07:37:56;5.55;;;4.05;;
8349;SDS011;60699;48.946;8.412;2024-02-21T07:40:23;12.25;;;5.28;;
8349;SDS011;60699;48.946;8.412;2024-02-21T07:42:50;6.03;;;4.30;;
8349;SDS011;60699;48.946;8.412;2024-02-21T07:45:17;8.75;;;4.93;;
8349;SDS011;60699;48.946;8.412;2024-02-21T07:47:46;8.55;;;3.90;;
8349;SDS011;60699;48.946;8.412;2024-02-21T07:50:14;4.70;;;4.20;;
8349;SDS011;60699;48.946;8.412;2024-02-21T07:52:43;6.47;;;4.63;;
8349;SDS011;60699;48.946;8.412;2024-02-21T07:55:10;4.57;;;3.65;;
8349;SDS011;60699;48.946;8.412;2024-02-21T07:57:37;6.88;;;3.85;;
8349;SDS011;60699;48.946;8.412;2024-02-21T08:00:04;5.43;;;4.20;;
8349;SDS011;60699;48.946;8.412;2024-02-21T08:02:34;5.20;;;4.40;;
8349;SDS011;60699;48.946;8.412;2024-02-21T08:05:02;6.55;;;4.47;;
8349;SDS011;60699;48.946;8.412;2024-02-21T08:07:30;5.68;;;3.50;;
8349;SDS011;60699;48.946;8.412;2024-02-21T08:09:58;4.78;;;3.20;;
8349;SDS011;60699;48.946;8.412;2024-02-21T08:12:25;4.35;;;3.17;;
8349;SDS011;60699;48.946;8.412;2024-02-21T08:14:53;3.90;;;3.38;;
8349;SDS011;60699;48.946;8.412;2024-02-21T08:17:20;5.70;;;3.45;;
8349;SDS011;60699;48.946;8.412;2024-02-21T08:19:47;6.70;;;3.13;;
8349;SDS011;60699;48.946;8.412;2024-02-21T08:22:14;4.32;;;3.50;;
8349;SDS011;60699;48.946;8.412;2024-02-21T08:24:41;5.80;;;3.83;;
8349;SDS011;60699;48.946;8.412;2024-02-21T08:27:09;6.95;;;3.80;;
8349;SDS011;60699;48.946;8.412;2024-02-21T08:29:36;3.92;;;3.53;;
8349;SDS011;60699;48.946;8.412;2024-02-21T08:32:03;7.60;;;3.78;;
8349;SDS011;60699;48.946;8.412;2024-02-21T08:34:30;4.88;;;3.55;;
8349;SDS011;60699;48.946;8.412;2024-02-21T08:36:59;7.22;;;4.28;;
8349;SDS011;60699;48.946;8.412;2024-02-21T08:39:26;5.57;;;4.03;;
8349;SDS011;60699;48.946;8.412;2024-02-21T08:41:55;3.85;;;3.55;;
8349;SDS011;60699;48.946;8.412;2024-02-21T08:44:23;7.20;;;3.88;;
8349;SDS011;60699;48.946;8.412;2024-02-21T08:46:51;11.95;;;4.32;;
8349;SDS011;60699;48.946;8.412;2024-02-21T08:49:18;6.18;;;4.13;;
8349;SDS011;60699;48.946;8.412;2024-02-21T08:51:45;4.03;;;3.38;;
8349;SDS011;60699;48.946;8.412;2024-02-21T08:54:12;7.18;;;4.10;;
8349;SDS011;60699;48.946;8.412;2024-02-21T08:56:39;5.20;;;3.72;;
8349;SDS011;60699;48.946;8.412;2024-02-21T08:59:06;6.78;;;3.80;;
8349;SDS011;60699;48.946;8.412;2024-02-21T09:01:34;5.28;;;3.30;;
8349;SDS011;60699;48.946;8.412;2024-02-21T09:04:02;7.53;;;3.45;;
8349;SDS011;60699;48.946;8.412;2024-02-21T09:06:30;6.72;;;3.45;;
8349;SDS011;60699;48.946;8.412;2024-02-21T09:08:58;5.18;;;3.95;;
8349;SDS011;60699;48.946;8.412;2024-02-21T09:11:25;5.90;;;4.10;;
8349;SDS011;60699;48.946;8.412;2024-02-21T09:13:53;3.40;;;3.10;;
8349;SDS011;60699;48.946;8.412;2024-02-21T09:16:20;13.23;;;3.78;;
8349;SDS011;60699;48.946;8.412;2024-02-21T09:18:49;4.30;;;3.40;;
8349;SDS011;60699;48.946;8.412;2024-02-21T09:21:17;6.13;;;2.78;;
8349;SDS011;60699;48.946;8.412;2024-02-21T09:23:44;7.43;;;3.60;;
8349;SDS011;60699;48.946;8.412;2024-02-21T09:26:11;4.50;;;3.88;;
8349;SDS011;60699;48.946;8.412;2024-02-21T09:28:41;9.48;;;3.30;;
8349;SDS011;60699;48.946;8.412;2024-02-21T09:31:08;4.45;;;3.47;;
8349;SDS011;60699;48.946;8.412;2024-02-21T09:33:35;3.67;;;3.22;;
8349;SDS011;60699;48.946;8.412;2024-02-21T09:36:03;4.43;;;3.50;;
8349;SDS011;60699;48.946;8.412;2024-02-21T09:38:31;4.03;;;3.17;;
8349;SDS011;60699;48.946;8.412;2024-02-21T09:40:58;6.93;;;3.30;;
8349;SDS011;60699;48.946;8.412;2024-02-21T09:43:26;6.35;;;3.83;;
8349;SDS011;60699;48.946;8.412;2024-02-21T09:45:54;5.53;;;3.55;;
8349;SDS011;60699;48.946;8.412;2024-02-21T09:48:34;5.63;;;3.10;;
8349;SDS011;60699;48.946;8.412;2024-02-21T09:51:05;3.45;;;2.92;;
8349;SDS011;60699;48.946;8.412;2024-02-21T09:53:34;3.75;;;3.45;;
8349;SDS011;60699;48.946;8.412;2024-02-21T09:56:01;4.78;;;3.72;;
8349;SDS011;60699;48.946;8.412;2024-02-21T09:58:29;6.35;;;3.83;;
8349;SDS011;60699;48.946;8.412;2024-02-21T10:00:56;5.93;;;3.42;;
8349;SDS011;60699;48.946;8.412;2024-02-21T10:03:23;4.88;;;3.30;;
8349;SDS011;60699;48.946;8.412;2024-02-21T10:05:50;6.28;;;4.00;;
8349;SDS011;60699;48.946;8.412;2024-02-21T10:08:19;3.25;;;2.95;;
8349;SDS011;60699;48.946;8.412;2024-02-21T10:10:46;7.68;;;3.20;;
8349;SDS011;60699;48.946;8.412;2024-02-21T10:13:23;8.10;;;4.30;;
8349;SDS011;60699;48.946;8.412;2024-02-21T10:16:00;3.53;;;3.20;;
8349;SDS011;60699;48.946;8.412;2024-02-21T10:18:27;6.25;;;3.40;;
8349;SDS011;60699;48.946;8.412;2024-02-21T10:20:59;9.93;;;3.42;;
8349;SDS011;60699;48.946;8.412;2024-02-21T10:23:27;3.22;;;2.92;;
8349;SDS011;60699;48.946;8.412;2024-02-21T10:26:04;7.53;;;4.05;;
8349;SDS011;60699;48.946;8.412;2024-02-21T10:28:31;4.90;;;2.92;;
8349;SDS011;60699;48.946;8.412;2024-02-21T10:30:58;5.90;;;3.38;;
8349;SDS011;60699;48.946;8.412;2024-02-21T10:33:25;6.55;;;3.33;;
8349;SDS011;60699;48.946;8.412;2024-02-21T10:35:53;7.20;;;3.83;;
8349;SDS011;60699;48.946;8.412;2024-02-21T10:38:20;7.97;;;4.05;;
8349;SDS011;60699;48.946;8.412;2024-02-21T10:40:48;4.05;;;3.03;;
8349;SDS011;60699;48.946;8.412;2024-02-21T10:43:17;4.65;;;3.38;;
8349;SDS011;60699;48.946;8.412;2024-02-21T10:45:45;3.55;;;3.15;;
8349;SDS011;60699;48.946;8.412;2024-02-21T10:48:13;5.45;;;3.67;;
8349;SDS011;60699;48.946;8.412;2024-02-21T10:50:45;7.50;;;3.75;;
8349;SDS011;60699;48.946;8.412;2024-02-21T10:53:16;6.80;;;2.80;;
8349;SDS011;60699;48.946;8.412;2024-02-21T10:55:53;5.03;;;3.78;;
8349;SDS011;60699;48.946;8.412;2024-02-21T10:58:23;5.03;;;2.90;;
8349;SDS011;60699;48.946;8.412;2024-02-21T11:00:50;5.30;;;3.53;;
8349;SDS011;60699;48.946;8.412;2024-02-21T11:03:18;5.30;;;3.05;;
8349;SDS011;60699;48.946;8.412;2024-02-21T11:05:45;3.50;;;3.20;;
8349;SDS011;60699;48.946;8.412;2024-02-21T11:08:13;4.65;;;2.97;;
8349;SDS011;60699;48.946;8.412;2024-02-21T11:10:45;4.75;;;3.13;;
8349;SDS011;60699;48.946;8.412;2024-02-21T11:13:13;15.65;;;3.40;;
8349;SDS011;60699;48.946;8.412;2024-02-21T11:15:40;7.72;;;2.80;;
8349;SDS011;60699;48.946;8.412;2024-02-21T11:18:07;3.15;;;2.80;;
8349;SDS011;60699;48.946;8.412;2024-02-21T11:20:35;4.30;;;3.05;;
8349;SDS011;60699;48.946;8.412;2024-02-21T11:23:02;5.43;;;2.47;;
8349;SDS011;60699;48.946;8.412;2024-02-21T11:25:30;7.65;;;3.20;;
8349;SDS011;60699;48.946;8.412;2024-02-21T11:27:58;3.83;;;3.03;;
8349;SDS011;60699;48.946;8.412;2024-02-21T11:30:27;5.57;;;2.65;;
8349;SDS011;60699;48.946;8.412;2024-02-21T11:32:59;5.60;;;2.78;;
8349;SDS011;60699;48.946;8.412;2024-02-21T11:35:26;2.95;;;2.10;;
8349;SDS011;60699;48.946;8.412;2024-02-21T11:38:07;3.63;;;3.33;;
8349;SDS011;60699;48.946;8.412;2024-02-21T11:40:34;5.35;;;2.47;;
8349;SDS011;60699;48.946;8.412;2024-02-21T11:43:01;5.95;;;2.47;;
8349;SDS011;60699;48.946;8.412;2024-02-21T11:45:29;3.13;;;2.90;;
8349;SDS011;60699;48.946;8.412;2024-02-21T11:47:57;4.82;;;2.50;;
8349;SDS011;60699;48.946;8.412;2024-02-21T11:50:25;4.05;;;2.28;;
8349;SDS011;60699;48.946;8.412;2024-02-21T11:52:54;2.45;;;2.25;;
8349;SDS011;60699;48.946;8.412;2024-02-21T11:55:21;3.80;;;2.33;;
8349;SDS011;60699;48.946;8.412;2024-02-21T11:57:48;7.80;;;2.30;;
8349;SDS011;60699;48.946;8.412;2024-02-21T12:00:16;6.07;;;2.55;;
8349;SDS011;60699;48.946;8.412;2024-02-21T12:02:46;2.35;;;2.13;;
8349;SDS011;60699;48.946;8.412;2024-02-21T12:05:15;8.40;;;3.08;;
8349;SDS011;60699;48.946;8.412;2024-02-21T12:07:42;3.58;;;3.28;;
8349;SDS011;60699;48.946;8.412;2024-02-21T12:10:09;3.88;;;2.45;;
8349;SDS011;60699;48.946;8.412;2024-02-21T12:12:37;3.58;;;2.28;;
8349;SDS011;60699;48.946;8.412;2024-02-21T12:15:04;2.20;;;2.00;;
8349;SDS011;60699;48.946;8.412;2024-02-21T12:17:32;2.35;;;2.15;;
8349;SDS011;60699;48.946;8.412;2024-02-21T12:20:01;5.70;;;1.95;;
8349;SDS011;60699;48.946;8.412;2024-02-21T12:22:30;3.28;;;2.15;;
8349;SDS011;60699;48.946;8.412;2024-02-21T12:24:58;2.95;;;1.88;;
8349;SDS011;60699;48.946;8.412;2024-02-21T12:27:25;4.82;;;2.35;;
8349;SDS011;60699;48.946;8.412;2024-02-21T12:29:52;5.35;;;2.85;;
8349;SDS011;60699;48.946;8.412;2024-02-21T12:32:19;2.13;;;2.03;;
8349;SDS011;60699;48.946;8.412;2024-02-21T12:34:46;4.35;;;2.25;;
8349;SDS011;60699;48.946;8.412;2024-02-21T12:37:14;4.30;;;2.50;;
8349;SDS011;60699;48.946;8.412;2024-02-21T12:39:41;2.30;;;2.10;;
8349;SDS011;60699;48.946;8.412;2024-02-21T12:42:09;3.65;;;1.90;;
8349;SDS011;60699;48.946;8.412;2024-02-21T12:44:37;3.13;;;2.20;;
8349;SDS011;60699;48.946;8.412;2024-02-21T12:47:04;3.00;;;2.80;;
8349;SDS011;60699;48.946;8.412;2024-02-21T12:49:31;2.35;;;2.17;;
8349;SDS011;60699;48.946;8.412;2024-02-21T12:51:58;6.70;;;2.72;;
8349;SDS011;60699;48.946;8.412;2024-02-21T12:54:26;5.70;;;2.33;;
8349;SDS011;60699;48.946;8.412;2024-02-21T12:56:55;3.42;;;2.70;;
8349;SDS011;60699;48.946;8.412;2024-02-21T12:59:22;4.78;;;2.80;;
8349;SDS011;60699;48.946;8.412;2024-02-21T13:01:49;3.00;;;2.60;;
8349;SDS011;60699;48.946;8.412;2024-02-21T13:04:16;3.83;;;2.60;;
8349;SDS011;60699;48.946;8.412;2024-02-21T13:06:43;3.83;;;2.58;;
8349;SDS011;60699;48.946;8.412;2024-02-21T13:09:10;5.28;;;2.30;;
8349;SDS011;60699;48.946;8.412;2024-02-21T13:11:40;4.10;;;2.95;;
8349;SDS011;60699;48.946;8.412;2024-02-21T13:14:08;3.58;;;2.50;;
8349;SDS011;60699;48.946;8.412;2024-02-21T13:16:35;2.70;;;2.50;;
8349;SDS011;60699;48.946;8.412;2024-02-21T13:19:04;4.10;;;2.58;;
8349;SDS011;60699;48.946;8.412;2024-02-21T13:21:31;2.30;;;2.10;;
8349;SDS011;60699;48.946;8.412;2024-02-21T13:23:58;5.60;;;2.58;;
8349;SDS011;60699;48.946;8.412;2024-02-21T13:26:25;2.67;;;2.45;;
8349;SDS011;60699;48.946;8.412;2024-02-21T13:28:53;4.13;;;2.70;;
8349;SDS011;60699;48.946;8.412;2024-02-21T13:31:20;7.65;;;2.17;;
8349;SDS011;60699;48.946;8.412;2024-02-21T13:33:47;2.35;;;2.15;;
8349;SDS011;60699;48.946;8.412;2024-02-21T13:36:14;3.97;;;2.58;;
8349;SDS011;60699;48.946;8.412;2024-02-21T13:38:41;3.38;;;2.70;;
8349;SDS011;60699;48.946;8.412;2024-02-21T13:41:08;5.60;;;2.67;;
8349;SDS011;60699;48.946;8.412;2024-02-21T13:43:35;5.20;;;3.00;;
8349;SDS011;60699;48.946;8.412;2024-02-21T13:46:04;2.28;;;2.05;;
8349;SDS011;60699;48.946;8.412;2024-02-21T13:48:34;5.05;;;2.95;;
8349;SDS011;60699;48.946;8.412;2024-02-21T13:51:01;3.90;;;2.67;;
8349;SDS011;60699;48.946;8.412;2024-02-21T13:53:28;2.70;;;2.45;;
8349;SDS011;60699;48.946;8.412;2024-02-21T13:55:55;2.72;;;2.08;;
8349;SDS011;60699;48.946;8.412;2024-02-21T13:58:23;4.60;;;2.55;;
8349;SDS011;60699;48.946;8.412;2024-02-21T14:00:51;6.30;;;2.40;;
8349;SDS011;60699;48.946;8.412;2024-02-21T14:03:19;2.90;;;2.70;;
8349;SDS011;60699;48.946;8.412;2024-02-21T14:05:46;5.10;;;3.20;;
8349;SDS011;60699;48.946;8.412;2024-02-21T14:08:14;2.58;;;2.25;;
8349;SDS011;60699;48.946;8.412;2024-02-21T14:10:41;4.20;;;2.75;;
8349;SDS011;60699;48.946;8.412;2024-02-21T14:13:08;6.55;;;2.83;;
8349;SDS011;60699;48.946;8.412;2024-02-21T14:15:36;5.60;;;2.88;;
8349;SDS011;60699;48.946;8.412;2024-02-21T14:18:06;3.10;;;2.40;;
8349;SDS011;60699;48.946;8.412;2024-02-21T14:20:35;3.80;;;2.78;;
8349;SDS011;60699;48.946;8.412;2024-02-21T14:23:02;4.55;;;3.58;;
8349;SDS011;60699;48.946;8.412;2024-02-21T14:25:30;4.00;;;3.50;;
8349;SDS011;60699;48.946;8.412;2024-02-21T14:27:58;5.95;;;2.50;;
8349;SDS011;60699;48.946;8.412;2024-02-21T14:30:25;3.03;;;2.78;;
8349;SDS011;60699;48.946;8.412;2024-02-21T14:32:53;6.68;;;3.17;;
8349;SDS011;60699;48.946;8.412;2024-02-21T14:35:20;3.70;;;3.17;;
8349;SDS011;60699;48.946;8.412;2024-02-21T14:37:48;4.63;;;3.55;;
8349;SDS011;60699;48.946;8.412;2024-02-21T14:40:15;3.20;;;2.28;;
8349;SDS011;60699;48.946;8.412;2024-02-21T14:42:44;3.65;;;2.53;;
8349;SDS011;60699;48.946;8.412;2024-02-21T14:45:11;3.92;;;3.20;;
8349;SDS011;60699;48.946;8.412;2024-02-21T14:47:38;3.53;;;2.70;;
8349;SDS011;60699;48.946;8.412;2024-02-21T14:50:06;3.08;;;2.75;;
8349;SDS011;60699;48.946;8.412;2024-02-21T14:52:33;12.45;;;2.97;;
8349;SDS011;60699;48.946;8.412;2024-02-21T14:55:03;5.43;;;3.78;;
8349;SDS011;60699;48.946;8.412;2024-02-21T14:57:30;4.70;;;2.40;;
8349;SDS011;60699;48.946;8.412;2024-02-21T14:59:57;2.58;;;2.38;;
8349;SDS011;60699;48.946;8.412;2024-02-21T15:02:24;3.05;;;2.60;;